createdAt,value
2024-02-24T00:02:19.083Z,6.21
2024-02-24T00:05:09.447Z,6.21
2024-02-24T00:07:58.905Z,6.20
2024-02-24T00:10:48.961Z,6.12
2024-02-24T00:13:39.868Z,6.16
2024-02-24T00:16:29.385Z,6.05
2024-02-24T00:19:18.792Z,6.17
2024-02-24T00:22:08.124Z,6.10
2024-02-24T00:24:57.509Z,6.14
2024-02-24T00:27:46.902Z,6.09
2024-02-24T00:30:38.167Z,6.03
2024-02-24T00:33:27.646Z,6.03
2024-02-24T00:36:17.009Z,6.07
2024-02-24T00:39:07.057Z,6.06
2024-02-24T00:41:56.625Z,6.06
2024-02-24T00:44:46.085Z,6.08
2024-02-24T00:47:36.966Z,6.01
2024-02-24T00:50:30.441Z,6.07
2024-02-24T00:53:20.055Z,6.11
2024-02-24T00:56:09.731Z,6.10
2024-02-24T00:58:59.306Z,6.14
2024-02-24T01:01:49.542Z,6.11
2024-02-24T01:04:40.363Z,6.23
2024-02-24T01:07:29.850Z,6.25
2024-02-24T01:10:19.312Z,6.26
2024-02-24T01:13:08.721Z,6.32
2024-02-24T01:15:58.171Z,6.43
2024-02-24T01:18:47.931Z,6.55
2024-02-24T01:21:43.844Z,6.57
2024-02-24T01:24:33.272Z,6.61
2024-02-24T01:27:22.676Z,6.53
2024-02-24T01:30:13.057Z,6.57
2024-02-24T01:33:03.859Z,6.56
2024-02-24T01:35:53.542Z,6.57
2024-02-24T01:38:44.589Z,6.27
2024-02-24T01:41:34.222Z,6.34
2024-02-24T01:44:23.793Z,6.28
2024-02-24T01:47:13.448Z,6.22
2024-02-24T01:50:03.158Z,6.42
2024-02-24T01:52:52.932Z,6.43
2024-02-24T01:55:44.255Z,6.41
2024-02-24T01:58:36.828Z,6.37
2024-02-24T02:01:26.619Z,6.39
2024-02-24T02:04:18.946Z,6.38
2024-02-24T02:07:08.430Z,6.29
2024-02-24T02:09:58.867Z,6.33
2024-02-24T02:12:49.918Z,6.36
2024-02-24T02:15:39.457Z,6.33
2024-02-24T02:18:31.766Z,6.33
2024-02-24T02:21:23.250Z,6.32
2024-02-24T02:24:14.152Z,6.31
2024-02-24T02:27:07.881Z,6.31
2024-02-24T02:30:01.427Z,6.30
2024-02-24T02:32:51.127Z,6.32
2024-02-24T02:35:41.285Z,6.33
2024-02-24T02:38:30.618Z,6.34
2024-02-24T02:41:21.604Z,6.34
2024-02-24T02:44:11.678Z,6.32
2024-02-24T02:47:03.999Z,6.39
2024-02-24T02:49:55.098Z,6.19
2024-02-24T02:52:44.598Z,6.48
2024-02-24T02:55:34.046Z,6.51
2024-02-24T02:58:25.016Z,6.54
2024-02-24T03:01:14.456Z,6.55
2024-02-24T03:04:03.984Z,6.60
2024-02-24T03:06:53.645Z,6.66
2024-02-24T03:09:48.997Z,6.70
2024-02-24T03:12:38.686Z,6.74
2024-02-24T03:15:29.846Z,6.76
2024-02-24T03:18:19.386Z,6.75
2024-02-24T03:21:08.937Z,6.75
2024-02-24T03:23:58.709Z,6.76
2024-02-24T03:26:48.246Z,6.66
2024-02-24T03:29:37.674Z,6.76
2024-02-24T03:32:28.738Z,6.80
2024-02-24T03:35:18.292Z,6.83
2024-02-24T03:38:07.755Z,6.79
2024-02-24T03:40:57.087Z,6.85
2024-02-24T03:43:46.659Z,6.85
2024-02-24T03:46:36.159Z,6.82
2024-02-24T03:49:27.085Z,6.79
2024-02-24T03:52:16.496Z,6.81
2024-02-24T03:55:06.892Z,6.83
2024-02-24T03:57:56.353Z,6.75
2024-02-24T04:00:45.756Z,6.83
2024-02-24T04:03:35.150Z,6.83
2024-02-24T04:06:26.063Z,6.83
2024-02-24T04:09:15.498Z,6.81
2024-02-24T04:12:05.494Z,6.82
2024-02-24T04:14:55.832Z,6.84
2024-02-24T04:17:45.353Z,6.88
2024-02-24T04:20:34.914Z,6.86
2024-02-24T04:23:25.878Z,6.78
2024-02-24T04:26:15.201Z,6.83
2024-02-24T04:29:04.750Z,6.82
2024-02-24T04:31:54.543Z,6.81
2024-02-24T04:34:43.888Z,6.72
2024-02-24T04:37:33.396Z,6.77
2024-02-24T04:40:24.286Z,6.79
2024-02-24T04:43:13.678Z,6.84
2024-02-24T04:46:03.425Z,6.83
2024-02-24T04:48:52.862Z,6.89
2024-02-24T04:51:42.396Z,6.91
2024-02-24T04:54:31.792Z,6.84
2024-02-24T04:57:22.681Z,6.87
2024-02-24T05:00:13.722Z,6.87
2024-02-24T05:03:03.935Z,6.89
2024-02-24T05:05:53.501Z,6.73
2024-02-24T05:08:45.166Z,6.72
2024-02-24T05:11:35.046Z,6.70
2024-02-24T05:14:25.850Z,6.57
2024-02-24T05:17:17.420Z,6.63
2024-02-24T05:20:08.660Z,6.60
2024-02-24T05:22:58.129Z,6.54
2024-02-24T05:25:49.683Z,6.54
2024-02-24T05:28:39.307Z,6.53
2024-02-24T05:31:30.246Z,6.53
2024-02-24T05:34:19.611Z,6.47
2024-02-24T05:37:09.074Z,6.28
2024-02-24T05:39:59.802Z,6.36
2024-02-24T05:42:49.321Z,6.37
2024-02-24T05:45:39.771Z,6.36
2024-02-24T05:48:31.247Z,6.26
2024-02-24T05:51:22.678Z,6.10
2024-02-24T05:54:12.354Z,6.25
2024-02-24T05:57:03.403Z,6.31
2024-02-24T05:59:53.316Z,6.25
2024-02-24T06:02:42.698Z,6.30
2024-02-24T06:05:33.945Z,6.22
2024-02-24T06:08:23.412Z,6.19
2024-02-24T06:11:13.071Z,6.19
2024-02-24T06:14:02.511Z,6.23
2024-02-24T06:16:51.992Z,6.29
2024-02-24T06:19:41.799Z,6.18
2024-02-24T06:22:32.790Z,6.21
2024-02-24T06:25:22.166Z,6.23
2024-02-24T06:28:12.106Z,6.20
2024-02-24T06:31:01.677Z,6.09
2024-02-24T06:33:51.481Z,6.09
2024-02-24T06:36:40.993Z,6.11
2024-02-24T06:39:31.950Z,5.85
2024-02-24T06:42:21.446Z,6.06
2024-02-24T06:45:11.493Z,5.80
2024-02-24T06:48:00.952Z,5.90
2024-02-24T06:50:50.637Z,5.94
2024-02-24T06:53:40.076Z,5.92
2024-02-24T06:56:30.959Z,5.82
2024-02-24T06:59:20.458Z,5.70
2024-02-24T07:02:10.145Z,5.60
2024-02-24T07:04:59.615Z,5.69
2024-02-24T07:07:49.239Z,5.78
2024-02-24T07:10:38.710Z,5.80
2024-02-24T07:13:29.492Z,5.80
2024-02-24T07:16:19.328Z,5.52
2024-02-24T07:19:08.842Z,5.98
2024-02-24T07:21:58.490Z,5.99
2024-02-24T07:24:47.893Z,5.92
2024-02-24T07:27:37.372Z,5.83
2024-02-24T07:30:28.512Z,5.99
2024-02-24T07:33:18.028Z,5.95
2024-02-24T07:36:08.708Z,5.93
2024-02-24T07:38:58.237Z,5.96
2024-02-24T07:41:47.945Z,5.92
2024-02-24T07:44:37.521Z,5.88
2024-02-24T07:47:28.384Z,5.89
2024-02-24T07:50:18.272Z,5.92
2024-02-24T07:53:08.762Z,5.93
2024-02-24T07:55:58.225Z,5.96
2024-02-24T07:58:47.553Z,6.09
2024-02-24T08:01:36.918Z,6.11
2024-02-24T08:04:27.617Z,6.22
2024-02-24T08:07:17.254Z,6.21
2024-02-24T08:10:08.095Z,6.25
2024-02-24T08:12:57.490Z,6.14
2024-02-24T08:15:46.890Z,6.16
2024-02-24T08:18:36.858Z,6.22
2024-02-24T08:21:27.869Z,6.10
2024-02-24T08:24:18.096Z,6.21
2024-02-24T08:27:07.739Z,6.20
2024-02-24T08:29:57.123Z,6.09
2024-02-24T08:32:48.548Z,6.14
2024-02-24T08:35:39.103Z,6.23
2024-02-24T08:38:30.037Z,6.19
2024-02-24T08:41:19.375Z,6.06
2024-02-24T08:44:08.848Z,6.11
2024-02-24T08:46:58.264Z,6.03
2024-02-24T08:49:47.850Z,5.91
2024-02-24T08:52:46.150Z,6.06
2024-02-24T08:55:41.109Z,6.10
2024-02-24T08:58:30.565Z,6.16
2024-02-24T09:01:20.668Z,6.20
2024-02-24T09:04:10.042Z,6.25
2024-02-24T09:06:59.477Z,6.28
2024-02-24T09:09:48.962Z,6.31
2024-02-24T09:12:39.824Z,6.40
2024-02-24T09:15:32.212Z,6.30
2024-02-24T09:18:21.877Z,6.42
2024-02-24T09:21:13.250Z,6.37
2024-02-24T09:24:02.905Z,6.55
2024-02-24T09:26:53.487Z,6.55
2024-02-24T09:29:44.726Z,6.47
2024-02-24T09:32:34.119Z,6.53
2024-02-24T09:35:23.691Z,6.53
2024-02-24T09:38:13.139Z,6.65
2024-02-24T09:41:02.863Z,6.77
2024-02-24T09:43:53.522Z,6.85
2024-02-24T09:46:45.594Z,7.03
2024-02-24T09:49:35.203Z,7.16
2024-02-24T09:52:24.919Z,7.33
2024-02-24T09:55:14.318Z,7.45
2024-02-24T09:58:04.553Z,7.56
2024-02-24T10:00:54.228Z,7.59
2024-02-24T10:03:47.174Z,7.54
2024-02-24T10:06:36.743Z,7.40
2024-02-24T10:09:26.174Z,7.54
2024-02-24T10:12:15.575Z,7.20
2024-02-24T10:15:05.245Z,7.09
2024-02-24T10:18:00.092Z,7.16
2024-02-24T10:20:52.899Z,7.33
2024-02-24T10:23:42.372Z,7.36
2024-02-24T10:26:31.912Z,7.34
2024-02-24T10:29:22.552Z,7.33
2024-02-24T10:32:13.767Z,7.38
2024-02-24T10:35:05.444Z,7.50
2024-02-24T10:38:11.422Z,7.58
2024-02-24T10:41:09.283Z,7.68
2024-02-24T10:44:10.398Z,7.69
2024-02-24T10:47:08.289Z,7.84
2024-02-24T10:49:57.714Z,7.87
2024-02-24T10:52:48.055Z,7.99
2024-02-24T10:55:40.068Z,8.05
2024-02-24T10:58:29.591Z,8.05
2024-02-24T11:01:20.791Z,7.99
2024-02-24T11:04:11.677Z,8.19
2024-02-24T11:07:02.599Z,8.39
2024-02-24T11:09:56.423Z,8.56
2024-02-24T11:12:47.295Z,9.27
2024-02-24T11:15:36.593Z,9.65
2024-02-24T11:18:56.524Z,9.79
2024-02-24T11:22:03.651Z,9.81
2024-02-24T11:25:03.549Z,9.91
2024-02-24T11:27:59.613Z,10.03
2024-02-24T11:30:53.913Z,9.93
2024-02-24T11:33:43.555Z,9.99
2024-02-24T11:36:34.773Z,9.71
2024-02-24T11:39:25.128Z,9.80
2024-02-24T11:42:16.544Z,9.75
2024-02-24T11:45:09.571Z,9.68
2024-02-24T11:47:59.074Z,9.68
2024-02-24T11:50:49.298Z,9.85
2024-02-24T11:53:38.715Z,10.07
2024-02-24T11:56:28.222Z,10.33
2024-02-24T11:59:18.017Z,10.43
2024-02-24T12:02:08.934Z,10.56
2024-02-24T12:05:15.423Z,10.44
2024-02-24T12:08:07.829Z,10.36
2024-02-24T12:10:57.346Z,10.43
2024-02-24T12:13:48.108Z,10.56
2024-02-24T12:16:39.420Z,10.43
2024-02-24T12:19:31.965Z,10.37
2024-02-24T12:22:24.317Z,10.46
2024-02-24T12:25:17.075Z,10.32
2024-02-24T12:28:07.894Z,10.42
2024-02-24T12:30:57.328Z,10.38
2024-02-24T12:33:47.857Z,10.44
2024-02-24T12:36:38.828Z,10.34
2024-02-24T12:39:31.168Z,10.34
2024-02-24T12:42:21.229Z,10.31
2024-02-24T12:45:11.482Z,10.04
2024-02-24T12:48:00.831Z,10.02
2024-02-24T12:50:51.159Z,10.08
2024-02-24T12:53:42.846Z,10.03
2024-02-24T12:56:32.361Z,9.99
2024-02-24T12:59:23.470Z,10.19
2024-02-24T13:02:13.034Z,10.34
2024-02-24T13:05:02.558Z,10.42
2024-02-24T13:07:53.156Z,10.70
2024-02-24T13:10:44.284Z,10.65
2024-02-24T13:13:33.656Z,10.72
2024-02-24T13:16:23.036Z,10.74
2024-02-24T13:19:12.453Z,10.74
2024-02-24T13:22:01.935Z,10.67
2024-02-24T13:24:51.396Z,10.73
2024-02-24T13:27:42.231Z,10.73
2024-02-24T13:30:31.467Z,10.73
2024-02-24T13:33:21.179Z,10.75
2024-02-24T13:36:11.072Z,10.63
2024-02-24T13:39:00.716Z,10.57
2024-02-24T13:41:52.668Z,10.59
2024-02-24T13:44:43.701Z,10.41
2024-02-24T13:47:33.122Z,10.32
2024-02-24T13:50:23.982Z,10.28
2024-02-24T13:53:13.633Z,10.19
2024-02-24T13:56:05.170Z,10.23
2024-02-24T13:58:55.075Z,10.30
2024-02-24T14:01:45.769Z,10.32
2024-02-24T14:04:35.129Z,10.35
2024-02-24T14:07:25.212Z,10.35
2024-02-24T14:10:14.473Z,10.47
2024-02-24T14:13:04.030Z,10.36
2024-02-24T14:15:53.442Z,10.48
2024-02-24T14:18:44.356Z,10.63
2024-02-24T14:21:33.763Z,10.68
2024-02-24T14:24:23.161Z,10.67
2024-02-24T14:27:12.609Z,10.72
2024-02-24T14:30:02.055Z,10.65
2024-02-24T14:32:52.191Z,10.79
2024-02-24T14:35:43.374Z,10.71
2024-02-24T14:38:33.006Z,10.62
2024-02-24T14:41:22.903Z,10.53
2024-02-24T14:44:12.533Z,10.63
2024-02-24T14:47:06.399Z,10.73
2024-02-24T14:49:55.961Z,10.85
2024-02-24T14:52:47.046Z,10.91
2024-02-24T14:55:36.416Z,10.72
2024-02-24T14:58:25.776Z,10.82
2024-02-24T15:01:15.944Z,10.87
2024-02-24T15:04:06.193Z,10.96
2024-02-24T15:06:55.982Z,11.02
2024-02-24T15:09:48.925Z,11.03
2024-02-24T15:12:38.486Z,11.13
2024-02-24T15:15:27.776Z,11.30
2024-02-24T15:18:17.439Z,11.26
2024-02-24T15:21:07.835Z,11.25
2024-02-24T15:23:57.280Z,11.29
2024-02-24T15:26:48.398Z,11.14
2024-02-24T15:29:37.991Z,11.04
2024-02-24T15:32:27.638Z,11.02
2024-02-24T15:35:17.617Z,11.02
2024-02-24T15:38:07.756Z,10.92
2024-02-24T15:40:57.139Z,10.88
2024-02-24T15:43:48.222Z,10.69
2024-02-24T15:46:37.680Z,10.64
2024-02-24T15:49:27.004Z,10.53
2024-02-24T15:52:16.758Z,10.50
2024-02-24T15:55:07.085Z,10.41
2024-02-24T15:57:56.631Z,10.35
2024-02-24T16:00:47.875Z,10.30
2024-02-24T16:03:37.411Z,10.27
2024-02-24T16:06:27.434Z,10.26
2024-02-24T16:09:17.478Z,10.24
2024-02-24T16:12:07.973Z,10.30
2024-02-24T16:14:57.394Z,10.28
2024-02-24T16:17:49.194Z,10.34
2024-02-24T16:20:38.625Z,10.30
2024-02-24T16:23:28.086Z,10.31
2024-02-24T16:26:17.534Z,10.19
2024-02-24T16:29:07.056Z,10.19
2024-02-24T16:31:56.617Z,10.23
2024-02-24T16:34:47.903Z,10.27
2024-02-24T16:37:37.415Z,10.16
2024-02-24T16:40:26.805Z,10.20
2024-02-24T16:43:16.217Z,10.11
2024-02-24T16:46:05.995Z,10.07
2024-02-24T16:48:55.764Z,10.14
2024-02-24T16:51:46.990Z,10.16
2024-02-24T16:54:39.118Z,10.04
2024-02-24T16:57:28.948Z,10.03
2024-02-24T17:00:19.346Z,10.06
2024-02-24T17:03:08.613Z,10.09
2024-02-24T17:05:58.680Z,10.13
2024-02-24T17:08:49.866Z,10.01
2024-02-24T17:11:39.373Z,9.95
2024-02-24T17:14:28.846Z,9.84
2024-02-24T17:17:19.473Z,9.93
2024-02-24T17:20:10.502Z,9.91
2024-02-24T17:23:03.150Z,9.93
2024-02-24T17:25:53.869Z,9.92
2024-02-24T17:28:43.349Z,9.93
2024-02-24T17:31:32.648Z,9.91
2024-02-24T17:34:22.561Z,9.86
2024-02-24T17:37:12.041Z,9.81
2024-02-24T17:40:01.449Z,9.74
2024-02-24T17:42:52.244Z,9.67
2024-02-24T17:45:41.686Z,9.64
2024-02-24T17:48:31.408Z,9.48
2024-02-24T17:51:20.911Z,9.46
2024-02-24T17:54:10.378Z,9.38
2024-02-24T17:56:59.824Z,9.32
2024-02-24T17:59:50.761Z,9.24
2024-02-24T18:02:41.156Z,9.16
2024-02-24T18:05:30.613Z,9.08
2024-02-24T18:08:20.126Z,9.02
2024-02-24T18:11:10.904Z,8.96
2024-02-24T18:14:00.583Z,8.89
2024-02-24T18:16:51.354Z,8.89
2024-02-24T18:19:40.748Z,8.86
2024-02-24T18:22:30.085Z,8.85
2024-02-24T18:25:19.642Z,8.83
2024-02-24T18:28:09.095Z,8.80
2024-02-24T18:30:59.660Z,8.77
2024-02-24T18:33:50.739Z,8.72
2024-02-24T18:36:40.469Z,8.68
2024-02-24T18:39:30.353Z,8.66
2024-02-24T18:42:23.650Z,8.60
2024-02-24T18:45:13.796Z,8.60
2024-02-24T18:48:04.054Z,8.60
2024-02-24T18:50:55.575Z,8.57
2024-02-24T18:53:48.079Z,8.60
2024-02-24T18:56:37.593Z,8.60
2024-02-24T18:59:27.058Z,8.58
2024-02-24T19:02:17.438Z,8.59
2024-02-24T19:05:07.501Z,8.57
2024-02-24T19:07:58.347Z,8.57
2024-02-24T19:10:47.869Z,8.57
2024-02-24T19:13:37.295Z,8.54
2024-02-24T19:16:26.931Z,8.49
2024-02-24T19:19:16.673Z,8.44
2024-02-24T19:22:06.499Z,8.44
2024-02-24T19:24:57.279Z,8.39
2024-02-24T19:27:47.303Z,8.35
2024-02-24T19:30:37.004Z,8.26
2024-02-24T19:33:26.609Z,8.25
2024-02-24T19:36:16.108Z,8.11
2024-02-24T19:39:15.604Z,8.21
2024-02-24T19:42:10.587Z,8.18
2024-02-24T19:45:01.009Z,8.17
2024-02-24T19:47:50.610Z,8.13
2024-02-24T19:50:40.459Z,8.10
2024-02-24T19:53:29.831Z,8.08
2024-02-24T19:56:19.262Z,8.05
2024-02-24T19:59:10.464Z,8.01
2024-02-24T20:02:00.787Z,7.98
2024-02-24T20:04:50.054Z,7.88
2024-02-24T20:07:39.585Z,7.85
2024-02-24T20:10:29.381Z,7.67
2024-02-24T20:13:18.669Z,7.68
2024-02-24T20:16:09.793Z,7.64
2024-02-24T20:18:59.243Z,7.65
2024-02-24T20:21:48.734Z,7.64
2024-02-24T20:24:38.066Z,7.58
2024-02-24T20:27:28.193Z,7.55
2024-02-24T20:30:20.801Z,7.50
2024-02-24T20:33:12.135Z,7.50
2024-02-24T20:36:01.619Z,7.45
2024-02-24T20:38:52.339Z,7.44
2024-02-24T20:41:42.487Z,7.41
2024-02-24T20:44:31.898Z,7.37
2024-02-24T20:47:22.821Z,7.28
2024-02-24T20:50:13.881Z,7.30
2024-02-24T20:53:05.285Z,7.29
2024-02-24T20:55:54.673Z,7.28
2024-02-24T20:58:44.090Z,7.21
2024-02-24T21:01:33.401Z,7.27
2024-02-24T21:04:22.917Z,7.14
2024-02-24T21:07:14.486Z,7.25
2024-02-24T21:10:03.933Z,7.21
2024-02-24T21:12:53.567Z,7.25
2024-02-24T21:15:42.909Z,7.22
2024-02-24T21:18:32.903Z,7.20
2024-02-24T21:21:23.271Z,7.01
2024-02-24T21:24:14.113Z,7.21
2024-02-24T21:27:03.677Z,7.20
2024-02-24T21:29:53.788Z,7.17
2024-02-24T21:32:43.504Z,7.19
2024-02-24T21:35:33.244Z,7.17
2024-02-24T21:38:23.057Z,7.16
2024-02-24T21:41:19.016Z,7.14
2024-02-24T21:44:09.020Z,7.06
2024-02-24T21:46:58.517Z,7.14
2024-02-24T21:49:47.872Z,7.13
2024-02-24T21:52:37.174Z,7.13
2024-02-24T21:55:27.032Z,7.16
2024-02-24T21:58:18.525Z,7.17
2024-02-24T22:01:07.888Z,7.15
2024-02-24T22:03:57.472Z,7.20
2024-02-24T22:06:47.473Z,7.17
2024-02-24T22:09:37.466Z,7.22
2024-02-24T22:12:27.142Z,7.25
2024-02-24T22:15:19.762Z,7.25
2024-02-24T22:18:09.723Z,7.28
2024-02-24T22:20:59.449Z,7.18
2024-02-24T22:23:51.678Z,7.32
2024-02-24T22:26:44.351Z,7.32
2024-02-24T22:29:34.008Z,7.34
2024-02-24T22:32:25.096Z,7.33
2024-02-24T22:35:15.563Z,7.32
2024-02-24T22:38:05.477Z,7.29
2024-02-24T22:40:54.874Z,7.25
2024-02-24T22:43:44.510Z,7.23
2024-02-24T22:46:34.360Z,7.21
2024-02-24T22:49:25.352Z,7.14
2024-02-24T22:52:17.847Z,7.11
2024-02-24T22:55:09.803Z,7.10
2024-02-24T22:57:59.468Z,7.07
2024-02-24T23:00:48.964Z,7.04
2024-02-24T23:03:38.415Z,7.00
2024-02-24T23:06:29.313Z,6.97
2024-02-24T23:09:19.104Z,6.92
2024-02-24T23:12:09.298Z,6.84
2024-02-24T23:14:58.924Z,6.80
2024-02-24T23:17:48.517Z,6.74
2024-02-24T23:20:37.810Z,6.67
2024-02-24T23:23:28.648Z,6.67
2024-02-24T23:26:18.114Z,6.65
2024-02-24T23:29:07.478Z,6.64
2024-02-24T23:31:56.864Z,6.62
2024-02-24T23:34:47.128Z,6.61
2024-02-24T23:37:36.612Z,6.60
2024-02-24T23:40:27.677Z,6.63
2024-02-24T23:43:17.001Z,6.64
2024-02-24T23:46:06.886Z,6.65
2024-02-24T23:48:56.623Z,6.65
2024-02-24T23:51:46.144Z,6.69
2024-02-24T23:54:35.676Z,6.72
2024-02-24T23:57:30.185Z,6.79
